sensor_id;sensor_type;location;lat;lon;timestamp;P1;durP1;ratioP1;P2;durP2;ratioP2
3769;SDS011;1900;48.890;9.190;2023-05-17T00:01:50;5.90;;;2.40;;
3769;SDS011;1900;48.890;9.190;2023-05-17T00:04:16;5.80;;;2.20;;
3769;SDS011;1900;48.890;9.190;2023-05-17T00:06:42;5.17;;;2.27;;
3769;SDS011;1900;48.890;9.190;2023-05-17T00:09:08;4.80;;;2.13;;
3769;SDS011;1900;48.890;9.190;2023-05-17T00:11:34;5.20;;;2.47;;
3769;SDS011;1900;48.890;9.190;2023-05-17T00:13:59;3.40;;;2.37;;
3769;SDS011;1900;48.890;9.190;2023-05-17T00:16:25;5.27;;;2.10;;
3769;SDS011;1900;48.890;9.190;2023-05-17T00:18:51;3.70;;;2.00;;
3769;SDS011;1900;48.890;9.190;2023-05-17T00:21:16;4.80;;;2.00;;
3769;SDS011;1900;48.890;9.190;2023-05-17T00:23:42;6.33;;;2.23;;
3769;SDS011;1900;48.890;9.190;2023-05-17T00:26:08;4.40;;;2.13;;
3769;SDS011;1900;48.890;9.190;2023-05-17T00:28:33;7.20;;;2.00;;
3769;SDS011;1900;48.890;9.190;2023-05-17T00:30:59;4.13;;;2.17;;
3769;SDS011;1900;48.890;9.190;2023-05-17T00:33:25;2.80;;;1.73;;
3769;SDS011;1900;48.890;9.190;2023-05-17T00:35:50;2.80;;;1.87;;
3769;SDS011;1900;48.890;9.190;2023-05-17T00:38:16;11.17;;;2.53;;
3769;SDS011;1900;48.890;9.190;2023-05-17T00:40:42;4.63;;;1.97;;
3769;SDS011;1900;48.890;9.190;2023-05-17T00:43:08;4.30;;;1.90;;
3769;SDS011;1900;48.890;9.190;2023-05-17T00:45:34;6.30;;;2.57;;
3769;SDS011;1900;48.890;9.190;2023-05-17T00:48:00;3.63;;;2.10;;
3769;SDS011;1900;48.890;9.190;2023-05-17T00:50:26;6.03;;;2.50;;
3769;SDS011;1900;48.890;9.190;2023-05-17T00:52:52;3.83;;;1.97;;
3769;SDS011;1900;48.890;9.190;2023-05-17T00:55:18;4.67;;;1.80;;
3769;SDS011;1900;48.890;9.190;2023-05-17T00:57:44;6.10;;;2.20;;
3769;SDS011;1900;48.890;9.190;2023-05-17T01:00:10;4.43;;;1.93;;
3769;SDS011;1900;48.890;9.190;2023-05-17T01:02:37;3.73;;;1.93;;
3769;SDS011;1900;48.890;9.190;2023-05-17T01:05:03;2.90;;;1.90;;
3769;SDS011;1900;48.890;9.190;2023-05-17T01:07:29;15.03;;;2.87;;
3769;SDS011;1900;48.890;9.190;2023-05-17T01:09:54;2.60;;;2.00;;
3769;SDS011;1900;48.890;9.190;2023-05-17T01:15:13;11.37;;;1.90;;
3769;SDS011;1900;48.890;9.190;2023-05-17T01:28:16;4.40;;;2.00;;
3769;SDS011;1900;48.890;9.190;2023-05-17T01:30:43;3.07;;;2.07;;
3769;SDS011;1900;48.890;9.190;2023-05-17T01:33:11;5.77;;;2.90;;
3769;SDS011;1900;48.890;9.190;2023-05-17T01:35:39;4.20;;;2.10;;
3769;SDS011;1900;48.890;9.190;2023-05-17T01:38:05;5.73;;;2.27;;
3769;SDS011;1900;48.890;9.190;2023-05-17T01:40:32;4.70;;;2.47;;
3769;SDS011;1900;48.890;9.190;2023-05-17T01:43:08;4.47;;;2.13;;
3769;SDS011;1900;48.890;9.190;2023-05-17T01:45:40;8.13;;;2.17;;
3769;SDS011;1900;48.890;9.190;2023-05-17T01:50:53;5.83;;;2.23;;
3769;SDS011;1900;48.890;9.190;2023-05-17T01:53:28;5.73;;;2.10;;
3769;SDS011;1900;48.890;9.190;2023-05-17T01:55:56;6.83;;;2.97;;
3769;SDS011;1900;48.890;9.190;2023-05-17T01:58:28;5.80;;;2.20;;
3769;SDS011;1900;48.890;9.190;2023-05-17T02:00:55;3.30;;;1.80;;
3769;SDS011;1900;48.890;9.190;2023-05-17T02:03:26;6.53;;;2.23;;
3769;SDS011;1900;48.890;9.190;2023-05-17T02:05:52;4.27;;;2.07;;
3769;SDS011;1900;48.890;9.190;2023-05-17T02:08:17;4.80;;;2.43;;
3769;SDS011;1900;48.890;9.190;2023-05-17T02:10:43;4.63;;;2.10;;
3769;SDS011;1900;48.890;9.190;2023-05-17T02:13:09;5.13;;;2.10;;
3769;SDS011;1900;48.890;9.190;2023-05-17T02:15:35;2.97;;;2.07;;
3769;SDS011;1900;48.890;9.190;2023-05-17T02:18:00;5.90;;;2.80;;
3769;SDS011;1900;48.890;9.190;2023-05-17T02:20:26;10.73;;;2.23;;
3769;SDS011;1900;48.890;9.190;2023-05-17T02:22:52;3.57;;;2.03;;
3769;SDS011;1900;48.890;9.190;2023-05-17T02:25:18;2.80;;;1.90;;
3769;SDS011;1900;48.890;9.190;2023-05-17T02:27:44;3.80;;;2.10;;
3769;SDS011;1900;48.890;9.190;2023-05-17T02:30:09;4.37;;;2.20;;
3769;SDS011;1900;48.890;9.190;2023-05-17T02:32:35;5.50;;;2.57;;
3769;SDS011;1900;48.890;9.190;2023-05-17T02:35:02;5.33;;;2.60;;
3769;SDS011;1900;48.890;9.190;2023-05-17T02:37:28;3.40;;;2.30;;
3769;SDS011;1900;48.890;9.190;2023-05-17T02:39:54;5.37;;;2.50;;
3769;SDS011;1900;48.890;9.190;2023-05-17T02:42:20;3.73;;;2.10;;
3769;SDS011;1900;48.890;9.190;2023-05-17T02:44:46;4.77;;;2.20;;
3769;SDS011;1900;48.890;9.190;2023-05-17T02:47:16;5.60;;;1.80;;
3769;SDS011;1900;48.890;9.190;2023-05-17T02:49:45;4.87;;;3.07;;
3769;SDS011;1900;48.890;9.190;2023-05-17T02:52:13;2.50;;;2.10;;
3769;SDS011;1900;48.890;9.190;2023-05-17T02:54:39;4.10;;;2.60;;
3769;SDS011;1900;48.890;9.190;2023-05-17T02:57:08;4.33;;;2.90;;
3769;SDS011;1900;48.890;9.190;2023-05-17T02:59:34;3.20;;;2.17;;
3769;SDS011;1900;48.890;9.190;2023-05-17T03:02:01;7.00;;;2.40;;
3769;SDS011;1900;48.890;9.190;2023-05-17T03:04:27;4.27;;;2.10;;
3769;SDS011;1900;48.890;9.190;2023-05-17T03:06:53;2.57;;;1.80;;
3769;SDS011;1900;48.890;9.190;2023-05-17T03:09:21;5.30;;;2.43;;
3769;SDS011;1900;48.890;9.190;2023-05-17T03:11:48;3.00;;;2.10;;
3769;SDS011;1900;48.890;9.190;2023-05-17T03:14:22;5.67;;;2.57;;
3769;SDS011;1900;48.890;9.190;2023-05-17T03:16:50;3.87;;;2.40;;
3769;SDS011;1900;48.890;9.190;2023-05-17T03:19:16;5.77;;;2.20;;
3769;SDS011;1900;48.890;9.190;2023-05-17T03:21:43;3.53;;;2.23;;
3769;SDS011;1900;48.890;9.190;2023-05-17T03:24:09;3.23;;;2.30;;
3769;SDS011;1900;48.890;9.190;2023-05-17T03:26:36;6.03;;;2.40;;
3769;SDS011;1900;48.890;9.190;2023-05-17T03:29:02;3.90;;;2.07;;
3769;SDS011;1900;48.890;9.190;2023-05-17T03:31:30;4.27;;;2.13;;
3769;SDS011;1900;48.890;9.190;2023-05-17T03:33:55;4.70;;;2.30;;
3769;SDS011;1900;48.890;9.190;2023-05-17T03:36:22;2.13;;;1.93;;
3769;SDS011;1900;48.890;9.190;2023-05-17T03:38:47;9.00;;;2.60;;
3769;SDS011;1900;48.890;9.190;2023-05-17T03:41:13;3.90;;;2.00;;
3769;SDS011;1900;48.890;9.190;2023-05-17T03:43:39;9.87;;;3.60;;
3769;SDS011;1900;48.890;9.190;2023-05-17T03:46:07;4.40;;;2.20;;
3769;SDS011;1900;48.890;9.190;2023-05-17T03:48:33;5.57;;;2.50;;
3769;SDS011;1900;48.890;9.190;2023-05-17T03:50:59;8.50;;;2.80;;
3769;SDS011;1900;48.890;9.190;2023-05-17T03:53:25;5.23;;;2.60;;
3769;SDS011;1900;48.890;9.190;2023-05-17T03:55:53;7.03;;;2.17;;
3769;SDS011;1900;48.890;9.190;2023-05-17T03:58:19;6.03;;;2.37;;
3769;SDS011;1900;48.890;9.190;2023-05-17T04:00:45;5.37;;;2.90;;
3769;SDS011;1900;48.890;9.190;2023-05-17T04:03:15;2.37;;;2.07;;
3769;SDS011;1900;48.890;9.190;2023-05-17T04:05:40;3.63;;;2.57;;
3769;SDS011;1900;48.890;9.190;2023-05-17T04:08:07;3.80;;;2.40;;
3769;SDS011;1900;48.890;9.190;2023-05-17T04:10:33;6.10;;;2.23;;
3769;SDS011;1900;48.890;9.190;2023-05-17T04:12:58;5.80;;;2.50;;
3769;SDS011;1900;48.890;9.190;2023-05-17T04:15:24;4.37;;;2.43;;
3769;SDS011;1900;48.890;9.190;2023-05-17T04:17:50;8.53;;;2.80;;
3769;SDS011;1900;48.890;9.190;2023-05-17T04:20:16;6.00;;;2.70;;
3769;SDS011;1900;48.890;9.190;2023-05-17T04:22:42;5.67;;;2.37;;
3769;SDS011;1900;48.890;9.190;2023-05-17T04:25:09;13.73;;;2.60;;
3769;SDS011;1900;48.890;9.190;2023-05-17T04:27:35;12.50;;;2.80;;
3769;SDS011;1900;48.890;9.190;2023-05-17T04:30:03;9.67;;;3.33;;
3769;SDS011;1900;48.890;9.190;2023-05-17T04:32:30;6.17;;;2.50;;
3769;SDS011;1900;48.890;9.190;2023-05-17T04:34:58;7.20;;;2.57;;
3769;SDS011;1900;48.890;9.190;2023-05-17T04:37:24;3.83;;;2.40;;
3769;SDS011;1900;48.890;9.190;2023-05-17T04:39:54;5.43;;;2.90;;
3769;SDS011;1900;48.890;9.190;2023-05-17T04:42:20;10.67;;;2.90;;
3769;SDS011;1900;48.890;9.190;2023-05-17T04:44:53;3.60;;;2.40;;
3769;SDS011;1900;48.890;9.190;2023-05-17T04:47:20;5.50;;;2.90;;
3769;SDS011;1900;48.890;9.190;2023-05-17T04:49:45;11.03;;;2.97;;
3769;SDS011;1900;48.890;9.190;2023-05-17T04:52:11;5.90;;;2.87;;
3769;SDS011;1900;48.890;9.190;2023-05-17T04:54:37;3.67;;;2.50;;
3769;SDS011;1900;48.890;9.190;2023-05-17T04:57:03;4.50;;;2.60;;
3769;SDS011;1900;48.890;9.190;2023-05-17T04:59:55;10.83;;;2.20;;
3769;SDS011;1900;48.890;9.190;2023-05-17T05:02:20;12.40;;;2.77;;
3769;SDS011;1900;48.890;9.190;2023-05-17T05:04:46;5.77;;;2.43;;
3769;SDS011;1900;48.890;9.190;2023-05-17T05:07:12;2.17;;;2.00;;
3769;SDS011;1900;48.890;9.190;2023-05-17T05:09:39;4.30;;;2.37;;
3769;SDS011;1900;48.890;9.190;2023-05-17T05:12:06;7.23;;;2.63;;
3769;SDS011;1900;48.890;9.190;2023-05-17T05:14:32;5.83;;;2.53;;
3769;SDS011;1900;48.890;9.190;2023-05-17T05:16:59;6.97;;;2.70;;
3769;SDS011;1900;48.890;9.190;2023-05-17T05:19:25;5.77;;;2.57;;
3769;SDS011;1900;48.890;9.190;2023-05-17T05:21:52;9.37;;;3.27;;
3769;SDS011;1900;48.890;9.190;2023-05-17T05:24:18;3.97;;;2.20;;
3769;SDS011;1900;48.890;9.190;2023-05-17T05:26:43;4.80;;;2.53;;
3769;SDS011;1900;48.890;9.190;2023-05-17T05:29:12;7.37;;;2.90;;
3769;SDS011;1900;48.890;9.190;2023-05-17T05:31:37;6.47;;;2.90;;
3769;SDS011;1900;48.890;9.190;2023-05-17T05:34:05;7.23;;;3.50;;
3769;SDS011;1900;48.890;9.190;2023-05-17T05:36:31;5.10;;;2.53;;
3769;SDS011;1900;48.890;9.190;2023-05-17T05:38:59;9.50;;;3.50;;
3769;SDS011;1900;48.890;9.190;2023-05-17T05:41:27;6.67;;;2.90;;
3769;SDS011;1900;48.890;9.190;2023-05-17T05:43:53;8.00;;;2.87;;
3769;SDS011;1900;48.890;9.190;2023-05-17T05:46:19;7.30;;;2.93;;
3769;SDS011;1900;48.890;9.190;2023-05-17T05:48:44;8.53;;;3.07;;
3769;SDS011;1900;48.890;9.190;2023-05-17T05:51:11;9.63;;;2.90;;
3769;SDS011;1900;48.890;9.190;2023-05-17T05:53:39;4.57;;;2.73;;
3769;SDS011;1900;48.890;9.190;2023-05-17T05:56:05;6.67;;;2.60;;
3769;SDS011;1900;48.890;9.190;2023-05-17T05:58:31;9.03;;;2.63;;
3769;SDS011;1900;48.890;9.190;2023-05-17T06:00:58;8.37;;;3.00;;
3769;SDS011;1900;48.890;9.190;2023-05-17T06:03:24;6.70;;;3.20;;
3769;SDS011;1900;48.890;9.190;2023-05-17T06:05:50;5.97;;;2.80;;
3769;SDS011;1900;48.890;9.190;2023-05-17T06:08:15;3.60;;;2.40;;
3769;SDS011;1900;48.890;9.190;2023-05-17T06:10:41;9.07;;;4.50;;
3769;SDS011;1900;48.890;9.190;2023-05-17T06:13:07;8.37;;;3.27;;
3769;SDS011;1900;48.890;9.190;2023-05-17T06:15:33;9.40;;;3.23;;
3769;SDS011;1900;48.890;9.190;2023-05-17T06:17:58;9.13;;;2.87;;
3769;SDS011;1900;48.890;9.190;2023-05-17T06:20:24;4.93;;;2.90;;
3769;SDS011;1900;48.890;9.190;2023-05-17T06:22:50;8.53;;;2.93;;
3769;SDS011;1900;48.890;9.190;2023-05-17T06:25:15;8.03;;;3.23;;
3769;SDS011;1900;48.890;9.190;2023-05-17T06:27:41;3.20;;;2.90;;
3769;SDS011;1900;48.890;9.190;2023-05-17T06:30:07;10.03;;;3.23;;
3769;SDS011;1900;48.890;9.190;2023-05-17T06:32:34;5.23;;;2.80;;
3769;SDS011;1900;48.890;9.190;2023-05-17T06:35:00;11.57;;;3.43;;
3769;SDS011;1900;48.890;9.190;2023-05-17T06:37:26;4.63;;;2.70;;
3769;SDS011;1900;48.890;9.190;2023-05-17T06:39:52;5.50;;;2.67;;
3769;SDS011;1900;48.890;9.190;2023-05-17T06:42:25;7.73;;;3.47;;
3769;SDS011;1900;48.890;9.190;2023-05-17T06:44:51;4.63;;;2.80;;
3769;SDS011;1900;48.890;9.190;2023-05-17T06:47:16;3.80;;;2.93;;
3769;SDS011;1900;48.890;9.190;2023-05-17T06:49:42;10.20;;;5.47;;
3769;SDS011;1900;48.890;9.190;2023-05-17T06:52:08;8.50;;;3.00;;
3769;SDS011;1900;48.890;9.190;2023-05-17T06:54:33;15.37;;;3.97;;
3769;SDS011;1900;48.890;9.190;2023-05-17T06:57:00;13.40;;;4.47;;
3769;SDS011;1900;48.890;9.190;2023-05-17T06:59:26;7.93;;;3.43;;
3769;SDS011;1900;48.890;9.190;2023-05-17T07:01:52;11.03;;;3.03;;
3769;SDS011;1900;48.890;9.190;2023-05-17T07:04:18;10.10;;;3.23;;
3769;SDS011;1900;48.890;9.190;2023-05-17T07:06:44;6.17;;;3.13;;
3769;SDS011;1900;48.890;9.190;2023-05-17T07:09:10;10.67;;;3.70;;
3769;SDS011;1900;48.890;9.190;2023-05-17T07:11:37;9.20;;;3.67;;
3769;SDS011;1900;48.890;9.190;2023-05-17T07:14:03;6.50;;;3.70;;
3769;SDS011;1900;48.890;9.190;2023-05-17T07:16:28;8.90;;;3.47;;
3769;SDS011;1900;48.890;9.190;2023-05-17T07:18:54;7.00;;;3.50;;
3769;SDS011;1900;48.890;9.190;2023-05-17T07:21:21;8.77;;;3.90;;
3769;SDS011;1900;48.890;9.190;2023-05-17T07:23:48;10.00;;;4.27;;
3769;SDS011;1900;48.890;9.190;2023-05-17T07:26:14;5.33;;;3.00;;
3769;SDS011;1900;48.890;9.190;2023-05-17T07:28:42;6.30;;;4.10;;
3769;SDS011;1900;48.890;9.190;2023-05-17T07:31:08;12.80;;;3.90;;
3769;SDS011;1900;48.890;9.190;2023-05-17T07:33:35;8.87;;;3.67;;
3769;SDS011;1900;48.890;9.190;2023-05-17T07:36:02;9.80;;;3.63;;
3769;SDS011;1900;48.890;9.190;2023-05-17T07:38:28;7.37;;;3.70;;
3769;SDS011;1900;48.890;9.190;2023-05-17T07:40:54;8.10;;;4.00;;
3769;SDS011;1900;48.890;9.190;2023-05-17T07:43:19;7.80;;;3.50;;
3769;SDS011;1900;48.890;9.190;2023-05-17T07:45:45;7.30;;;4.47;;
3769;SDS011;1900;48.890;9.190;2023-05-17T07:48:11;5.63;;;3.23;;
3769;SDS011;1900;48.890;9.190;2023-05-17T07:50:37;7.87;;;4.07;;
3769;SDS011;1900;48.890;9.190;2023-05-17T07:53:06;12.00;;;5.83;;
3769;SDS011;1900;48.890;9.190;2023-05-17T07:55:32;8.10;;;3.57;;
3769;SDS011;1900;48.890;9.190;2023-05-17T07:57:57;9.53;;;3.13;;
3769;SDS011;1900;48.890;9.190;2023-05-17T08:00:23;8.00;;;3.30;;
3769;SDS011;1900;48.890;9.190;2023-05-17T08:02:49;6.37;;;3.73;;
3769;SDS011;1900;48.890;9.190;2023-05-17T08:05:18;7.60;;;3.60;;
3769;SDS011;1900;48.890;9.190;2023-05-17T08:07:44;7.60;;;4.73;;
3769;SDS011;1900;48.890;9.190;2023-05-17T08:10:09;7.50;;;3.87;;
3769;SDS011;1900;48.890;9.190;2023-05-17T08:12:35;4.93;;;2.80;;
3769;SDS011;1900;48.890;9.190;2023-05-17T08:15:01;7.67;;;3.27;;
3769;SDS011;1900;48.890;9.190;2023-05-17T08:17:27;6.20;;;3.53;;
3769;SDS011;1900;48.890;9.190;2023-05-17T08:19:52;11.67;;;4.27;;
3769;SDS011;1900;48.890;9.190;2023-05-17T08:22:18;10.53;;;3.67;;
3769;SDS011;1900;48.890;9.190;2023-05-17T08:24:44;8.53;;;3.50;;
3769;SDS011;1900;48.890;9.190;2023-05-17T08:27:10;9.83;;;4.00;;
3769;SDS011;1900;48.890;9.190;2023-05-17T08:29:36;9.77;;;3.77;;
3769;SDS011;1900;48.890;9.190;2023-05-17T08:32:02;6.63;;;3.50;;
3769;SDS011;1900;48.890;9.190;2023-05-17T08:34:28;13.50;;;4.03;;
3769;SDS011;1900;48.890;9.190;2023-05-17T08:36:54;14.83;;;4.13;;
3769;SDS011;1900;48.890;9.190;2023-05-17T08:39:20;8.97;;;3.80;;
3769;SDS011;1900;48.890;9.190;2023-05-17T08:41:48;5.67;;;3.60;;
3769;SDS011;1900;48.890;9.190;2023-05-17T08:44:15;5.93;;;3.63;;
3769;SDS011;1900;48.890;9.190;2023-05-17T08:46:41;6.47;;;3.30;;
3769;SDS011;1900;48.890;9.190;2023-05-17T08:49:21;6.67;;;3.90;;
3769;SDS011;1900;48.890;9.190;2023-05-17T08:51:49;12.20;;;4.40;;
3769;SDS011;1900;48.890;9.190;2023-05-17T08:54:18;11.20;;;3.63;;
3769;SDS011;1900;48.890;9.190;2023-05-17T08:56:43;7.13;;;3.17;;
3769;SDS011;1900;48.890;9.190;2023-05-17T08:59:11;8.77;;;4.27;;
3769;SDS011;1900;48.890;9.190;2023-05-17T09:01:38;11.13;;;3.97;;
3769;SDS011;1900;48.890;9.190;2023-05-17T09:04:07;7.20;;;3.90;;
3769;SDS011;1900;48.890;9.190;2023-05-17T09:06:35;12.03;;;3.70;;
3769;SDS011;1900;48.890;9.190;2023-05-17T09:09:03;7.60;;;4.00;;
3769;SDS011;1900;48.890;9.190;2023-05-17T09:11:31;12.40;;;4.37;;
3769;SDS011;1900;48.890;9.190;2023-05-17T09:14:01;8.47;;;4.00;;
3769;SDS011;1900;48.890;9.190;2023-05-17T09:16:33;7.30;;;3.47;;
3769;SDS011;1900;48.890;9.190;2023-05-17T09:19:00;6.57;;;3.63;;
3769;SDS011;1900;48.890;9.190;2023-05-17T09:21:26;3.80;;;3.00;;
3769;SDS011;1900;48.890;9.190;2023-05-17T09:23:55;5.63;;;3.20;;
3769;SDS011;1900;48.890;9.190;2023-05-17T09:26:23;21.83;;;4.40;;
3769;SDS011;1900;48.890;9.190;2023-05-17T09:28:49;6.43;;;3.80;;
3769;SDS011;1900;48.890;9.190;2023-05-17T09:31:17;7.40;;;5.73;;
3769;SDS011;1900;48.890;9.190;2023-05-17T09:33:47;8.67;;;4.40;;
3769;SDS011;1900;48.890;9.190;2023-05-17T09:36:14;9.57;;;3.73;;
3769;SDS011;1900;48.890;9.190;2023-05-17T09:38:42;8.83;;;3.37;;
3769;SDS011;1900;48.890;9.190;2023-05-17T09:41:08;7.63;;;3.57;;
3769;SDS011;1900;48.890;9.190;2023-05-17T09:43:34;6.03;;;3.37;;
3769;SDS011;1900;48.890;9.190;2023-05-17T09:45:59;9.60;;;3.80;;
3769;SDS011;1900;48.890;9.190;2023-05-17T09:48:25;11.80;;;3.60;;
3769;SDS011;1900;48.890;9.190;2023-05-17T09:50:54;7.83;;;4.20;;
3769;SDS011;1900;48.890;9.190;2023-05-17T09:53:21;14.57;;;4.27;;
3769;SDS011;1900;48.890;9.190;2023-05-17T09:55:55;6.97;;;2.90;;
3769;SDS011;1900;48.890;9.190;2023-05-17T09:58:23;10.23;;;4.60;;
3769;SDS011;1900;48.890;9.190;2023-05-17T10:00:50;9.33;;;4.40;;
3769;SDS011;1900;48.890;9.190;2023-05-17T10:03:19;11.73;;;4.23;;
3769;SDS011;1900;48.890;9.190;2023-05-17T10:05:46;7.17;;;3.50;;
3769;SDS011;1900;48.890;9.190;2023-05-17T10:08:16;9.87;;;3.50;;
3769;SDS011;1900;48.890;9.190;2023-05-17T10:10:44;9.80;;;4.00;;
3769;SDS011;1900;48.890;9.190;2023-05-17T10:13:11;7.60;;;3.93;;
3769;SDS011;1900;48.890;9.190;2023-05-17T10:15:42;7.73;;;3.73;;
3769;SDS011;1900;48.890;9.190;2023-05-17T10:18:08;7.13;;;4.93;;
3769;SDS011;1900;48.890;9.190;2023-05-17T10:20:35;5.73;;;3.30;;
3769;SDS011;1900;48.890;9.190;2023-05-17T10:23:01;9.57;;;4.00;;
3769;SDS011;1900;48.890;9.190;2023-05-17T10:25:30;9.80;;;3.93;;
3769;SDS011;1900;48.890;9.190;2023-05-17T10:27:56;8.43;;;4.43;;
3769;SDS011;1900;48.890;9.190;2023-05-17T10:30:24;5.77;;;3.73;;
3769;SDS011;1900;48.890;9.190;2023-05-17T10:32:52;14.03;;;4.17;;
3769;SDS011;1900;48.890;9.190;2023-05-17T10:35:18;9.13;;;3.57;;
3769;SDS011;1900;48.890;9.190;2023-05-17T10:37:45;10.20;;;4.30;;
3769;SDS011;1900;48.890;9.190;2023-05-17T10:40:11;19.40;;;9.13;;
3769;SDS011;1900;48.890;9.190;2023-05-17T10:42:45;5.40;;;3.40;;
3769;SDS011;1900;48.890;9.190;2023-05-17T10:45:15;5.27;;;3.40;;
3769;SDS011;1900;48.890;9.190;2023-05-17T10:47:45;8.20;;;4.37;;
3769;SDS011;1900;48.890;9.190;2023-05-17T10:50:12;5.00;;;3.40;;
3769;SDS011;1900;48.890;9.190;2023-05-17T10:52:45;12.73;;;3.90;;
3769;SDS011;1900;48.890;9.190;2023-05-17T10:55:13;12.40;;;4.07;;
3769;SDS011;1900;48.890;9.190;2023-05-17T10:57:43;9.33;;;4.13;;
3769;SDS011;1900;48.890;9.190;2023-05-17T11:00:09;6.53;;;4.00;;
3769;SDS011;1900;48.890;9.190;2023-05-17T11:02:44;6.10;;;4.40;;
3769;SDS011;1900;48.890;9.190;2023-05-17T11:08:12;9.47;;;4.27;;
3769;SDS011;1900;48.890;9.190;2023-05-17T11:13:32;7.53;;;3.37;;
3769;SDS011;1900;48.890;9.190;2023-05-17T11:16:07;7.57;;;3.53;;
3769;SDS011;1900;48.890;9.190;2023-05-17T11:18:54;6.13;;;3.90;;
3769;SDS011;1900;48.890;9.190;2023-05-17T11:21:20;4.87;;;3.40;;
3769;SDS011;1900;48.890;9.190;2023-05-17T11:23:47;6.80;;;3.63;;
3769;SDS011;1900;48.890;9.190;2023-05-17T11:26:37;4.80;;;3.63;;
3769;SDS011;1900;48.890;9.190;2023-05-17T11:29:08;10.17;;;3.67;;
3769;SDS011;1900;48.890;9.190;2023-05-17T11:31:42;6.53;;;4.00;;
3769;SDS011;1900;48.890;9.190;2023-05-17T11:34:09;5.83;;;3.40;;
3769;SDS011;1900;48.890;9.190;2023-05-17T11:36:51;7.63;;;3.60;;
3769;SDS011;1900;48.890;9.190;2023-05-17T11:39:19;13.83;;;4.33;;
3769;SDS011;1900;48.890;9.190;2023-05-17T11:41:47;9.37;;;4.40;;
3769;SDS011;1900;48.890;9.190;2023-05-17T11:44:15;4.80;;;3.43;;
3769;SDS011;1900;48.890;9.190;2023-05-17T11:46:47;8.47;;;4.27;;
3769;SDS011;1900;48.890;9.190;2023-05-17T11:49:13;6.47;;;3.70;;
3769;SDS011;1900;48.890;9.190;2023-05-17T11:51:40;10.23;;;3.90;;
3769;SDS011;1900;48.890;9.190;2023-05-17T11:54:06;6.40;;;3.40;;
3769;SDS011;1900;48.890;9.190;2023-05-17T11:56:33;9.33;;;3.60;;
3769;SDS011;1900;48.890;9.190;2023-05-17T11:59:00;7.93;;;3.00;;
3769;SDS011;1900;48.890;9.190;2023-05-17T12:01:28;7.47;;;3.53;;
3769;SDS011;1900;48.890;9.190;2023-05-17T12:04:05;4.97;;;2.97;;
3769;SDS011;1900;48.890;9.190;2023-05-17T12:06:32;5.03;;;3.03;;
3769;SDS011;1900;48.890;9.190;2023-05-17T12:08:59;7.73;;;3.30;;
3769;SDS011;1900;48.890;9.190;2023-05-17T12:11:26;6.00;;;3.23;;
3769;SDS011;1900;48.890;9.190;2023-05-17T12:13:52;6.03;;;3.17;;
3769;SDS011;1900;48.890;9.190;2023-05-17T12:16:20;3.93;;;3.00;;
3769;SDS011;1900;48.890;9.190;2023-05-17T12:18:47;4.93;;;3.43;;
3769;SDS011;1900;48.890;9.190;2023-05-17T12:21:14;5.17;;;3.17;;
3769;SDS011;1900;48.890;9.190;2023-05-17T12:23:43;6.17;;;3.53;;
3769;SDS011;1900;48.890;9.190;2023-05-17T12:26:13;8.97;;;3.70;;
3769;SDS011;1900;48.890;9.190;2023-05-17T12:28:41;5.10;;;3.40;;
3769;SDS011;1900;48.890;9.190;2023-05-17T12:31:10;8.03;;;3.87;;
3769;SDS011;1900;48.890;9.190;2023-05-17T12:33:40;7.17;;;3.83;;
3769;SDS011;1900;48.890;9.190;2023-05-17T12:36:08;11.33;;;3.10;;
3769;SDS011;1900;48.890;9.190;2023-05-17T12:38:36;5.30;;;3.10;;
3769;SDS011;1900;48.890;9.190;2023-05-17T12:41:04;10.47;;;3.70;;
3769;SDS011;1900;48.890;9.190;2023-05-17T12:43:34;5.37;;;3.60;;
3769;SDS011;1900;48.890;9.190;2023-05-17T12:46:08;5.10;;;3.17;;
3769;SDS011;1900;48.890;9.190;2023-05-17T12:48:36;6.07;;;3.27;;
3769;SDS011;1900;48.890;9.190;2023-05-17T12:51:15;10.70;;;4.20;;
3769;SDS011;1900;48.890;9.190;2023-05-17T12:53:47;7.87;;;4.03;;
3769;SDS011;1900;48.890;9.190;2023-05-17T12:56:17;6.10;;;3.63;;
3769;SDS011;1900;48.890;9.190;2023-05-17T12:59:03;5.00;;;3.50;;
3769;SDS011;1900;48.890;9.190;2023-05-17T13:01:44;7.07;;;3.57;;
3769;SDS011;1900;48.890;9.190;2023-05-17T13:04:16;8.00;;;3.27;;
3769;SDS011;1900;48.890;9.190;2023-05-17T13:06:55;4.70;;;3.10;;
3769;SDS011;1900;48.890;9.190;2023-05-17T13:09:23;9.50;;;4.93;;
3769;SDS011;1900;48.890;9.190;2023-05-17T13:11:53;5.10;;;3.40;;
3769;SDS011;1900;48.890;9.190;2023-05-17T13:19:39;6.00;;;3.33;;
3769;SDS011;1900;48.890;9.190;2023-05-17T13:22:05;7.30;;;3.27;;
3769;SDS011;1900;48.890;9.190;2023-05-17T13:24:34;4.90;;;3.43;;
3769;SDS011;1900;48.890;9.190;2023-05-17T13:27:04;9.73;;;3.80;;
3769;SDS011;1900;48.890;9.190;2023-05-17T13:29:31;5.90;;;3.60;;
3769;SDS011;1900;48.890;9.190;2023-05-17T13:31:59;7.07;;;3.80;;
3769;SDS011;1900;48.890;9.190;2023-05-17T13:34:24;5.90;;;3.80;;
3769;SDS011;1900;48.890;9.190;2023-05-17T13:36:51;6.60;;;3.63;;
3769;SDS011;1900;48.890;9.190;2023-05-17T13:39:16;10.27;;;3.60;;
3769;SDS011;1900;48.890;9.190;2023-05-17T13:41:42;8.37;;;3.93;;
3769;SDS011;1900;48.890;9.190;2023-05-17T13:44:08;5.83;;;3.27;;
3769;SDS011;1900;48.890;9.190;2023-05-17T13:46:34;7.40;;;3.40;;
3769;SDS011;1900;48.890;9.190;2023-05-17T13:49:00;7.70;;;3.33;;
3769;SDS011;1900;48.890;9.190;2023-05-17T13:51:28;4.57;;;3.03;;
3769;SDS011;1900;48.890;9.190;2023-05-17T13:53:54;6.40;;;3.53;;
3769;SDS011;1900;48.890;9.190;2023-05-17T13:56:20;8.30;;;3.33;;
3769;SDS011;1900;48.890;9.190;2023-05-17T13:58:46;8.43;;;3.60;;
3769;SDS011;1900;48.890;9.190;2023-05-17T14:01:12;5.20;;;3.27;;
3769;SDS011;1900;48.890;9.190;2023-05-17T14:03:37;9.40;;;3.70;;
3769;SDS011;1900;48.890;9.190;2023-05-17T14:06:03;8.93;;;3.83;;
3769;SDS011;1900;48.890;9.190;2023-05-17T14:08:30;8.17;;;3.77;;
3769;SDS011;1900;48.890;9.190;2023-05-17T14:10:57;7.33;;;4.10;;
3769;SDS011;1900;48.890;9.190;2023-05-17T14:13:23;9.93;;;3.40;;
3769;SDS011;1900;48.890;9.190;2023-05-17T14:15:48;7.77;;;3.70;;
3769;SDS011;1900;48.890;9.190;2023-05-17T14:18:14;5.80;;;3.13;;
3769;SDS011;1900;48.890;9.190;2023-05-17T14:20:40;6.03;;;3.23;;
3769;SDS011;1900;48.890;9.190;2023-05-17T14:23:05;5.57;;;3.63;;
3769;SDS011;1900;48.890;9.190;2023-05-17T14:25:31;7.20;;;4.20;;
3769;SDS011;1900;48.890;9.190;2023-05-17T14:27:57;4.47;;;3.60;;
3769;SDS011;1900;48.890;9.190;2023-05-17T14:30:23;4.20;;;3.47;;
3769;SDS011;1900;48.890;9.190;2023-05-17T14:32:48;10.17;;;4.10;;
3769;SDS011;1900;48.890;9.190;2023-05-17T14:35:17;7.17;;;3.50;;
3769;SDS011;1900;48.890;9.190;2023-05-17T14:37:43;8.70;;;3.77;;
3769;SDS011;1900;48.890;9.190;2023-05-17T14:40:09;6.27;;;4.00;;
3769;SDS011;1900;48.890;9.190;2023-05-17T14:42:36;10.10;;;3.80;;
3769;SDS011;1900;48.890;9.190;2023-05-17T14:45:02;6.17;;;3.67;;
3769;SDS011;1900;48.890;9.190;2023-05-17T14:47:28;7.83;;;3.50;;
3769;SDS011;1900;48.890;9.190;2023-05-17T14:49:54;7.50;;;3.97;;
3769;SDS011;1900;48.890;9.190;2023-05-17T14:52:19;9.50;;;3.30;;
3769;SDS011;1900;48.890;9.190;2023-05-17T14:54:45;10.80;;;3.57;;
3769;SDS011;1900;48.890;9.190;2023-05-17T14:57:11;6.67;;;3.60;;
3769;SDS011;1900;48.890;9.190;2023-05-17T14:59:37;9.33;;;3.90;;
3769;SDS011;1900;48.890;9.190;2023-05-17T15:02:03;6.03;;;3.70;;
3769;SDS011;1900;48.890;9.190;2023-05-17T15:04:29;7.27;;;3.67;;
3769;SDS011;1900;48.890;9.190;2023-05-17T15:06:55;6.50;;;3.80;;
3769;SDS011;1900;48.890;9.190;2023-05-17T15:09:21;7.43;;;3.77;;
3769;SDS011;1900;48.890;9.190;2023-05-17T15:11:48;7.43;;;3.37;;
3769;SDS011;1900;48.890;9.190;2023-05-17T15:14:15;6.33;;;3.50;;
3769;SDS011;1900;48.890;9.190;2023-05-17T15:16:47;8.53;;;3.97;;
3769;SDS011;1900;48.890;9.190;2023-05-17T15:19:14;6.80;;;4.20;;
3769;SDS011;1900;48.890;9.190;2023-05-17T15:21:40;4.90;;;3.90;;
3769;SDS011;1900;48.890;9.190;2023-05-17T15:24:06;6.77;;;3.70;;
3769;SDS011;1900;48.890;9.190;2023-05-17T15:26:32;10.87;;;4.20;;
3769;SDS011;1900;48.890;9.190;2023-05-17T15:28:58;7.23;;;3.70;;
3769;SDS011;1900;48.890;9.190;2023-05-17T15:31:23;9.17;;;4.27;;
3769;SDS011;1900;48.890;9.190;2023-05-17T15:33:49;6.83;;;4.00;;
3769;SDS011;1900;48.890;9.190;2023-05-17T15:36:15;6.27;;;3.53;;
3769;SDS011;1900;48.890;9.190;2023-05-17T15:38:41;5.30;;;3.80;;
3769;SDS011;1900;48.890;9.190;2023-05-17T15:41:09;10.00;;;4.63;;